createdAt,value
2019-06-20T00:00:12.571Z,96109.23
2019-06-20T00:02:45.947Z,96114.84
2019-06-20T00:05:18.044Z,96114.58
2019-06-20T00:07:49.916Z,96111.47
2019-06-20T00:10:21.765Z,96129.22
2019-06-20T00:13:00.241Z,96147.52
2019-06-20T00:15:27.082Z,96159.23
2019-06-20T00:17:58.859Z,96176.16
2019-06-20T00:20:31.790Z,96199.60
2019-06-20T00:23:03.565Z,96209.52
2019-06-20T00:25:35.413Z,96230.25
2019-06-20T00:28:07.207Z,96230.10
2019-06-20T00:30:39.364Z,96231.55
2019-06-20T00:33:11.360Z,96225.86
2019-06-20T00:35:43.825Z,96230.38
2019-06-20T00:38:15.593Z,96231.41
2019-06-20T00:40:47.399Z,96235.81
2019-06-20T00:43:19.158Z,96248.49
2019-06-20T00:45:51.917Z,96245.02
2019-06-20T00:48:23.721Z,96230.69
2019-06-20T00:50:55.504Z,96219.08
2019-06-20T00:53:27.317Z,96212.60
2019-06-20T00:55:59.058Z,96221.77
2019-06-20T00:58:30.838Z,96223.35
2019-06-20T01:01:02.624Z,96233.49
2019-06-20T01:03:34.409Z,96235.00
2019-06-20T01:06:06.292Z,96241.94
2019-06-20T01:08:38.062Z,96240.09
2019-06-20T01:11:10.939Z,96241.36
2019-06-20T01:13:42.716Z,96239.16
2019-06-20T01:16:14.509Z,96242.12
2019-06-20T01:18:46.291Z,96241.45
2019-06-20T01:21:18.082Z,96230.58
2019-06-20T01:23:49.908Z,96232.45
2019-06-20T01:26:21.693Z,96232.79
2019-06-20T01:28:53.479Z,96234.27
2019-06-20T01:31:25.344Z,96239.05
2019-06-20T01:33:57.119Z,96238.84
2019-06-20T01:36:28.900Z,96237.72
2019-06-20T01:39:00.669Z,96225.40
2019-06-20T01:41:34.048Z,96221.02
2019-06-20T01:44:06.097Z,96212.08
2019-06-20T01:46:37.895Z,96215.13
2019-06-20T01:49:10.915Z,96205.89
2019-06-20T01:51:42.776Z,96198.63
2019-06-20T01:54:14.553Z,96200.25
2019-06-20T01:56:46.352Z,96202.16
2019-06-20T01:59:18.107Z,96206.59
2019-06-20T02:01:49.911Z,96207.73
2019-06-20T02:04:21.680Z,96204.92
2019-06-20T02:06:53.462Z,96215.58
2019-06-20T02:09:25.632Z,96211.48
2019-06-20T02:11:57.460Z,96211.48
2019-06-20T02:14:29.568Z,96205.37
2019-06-20T02:17:01.370Z,96199.50
2019-06-20T02:19:33.152Z,96207.04
2019-06-20T02:22:05.000Z,96204.11
2019-06-20T02:24:36.768Z,96194.84
2019-06-20T02:27:08.630Z,96194.55
2019-06-20T02:29:40.407Z,96202.98
2019-06-20T02:32:12.187Z,96211.23
2019-06-20T02:34:44.304Z,96207.91
2019-06-20T02:37:16.084Z,96206.06
2019-06-20T02:39:47.866Z,96206.64
2019-06-20T02:42:19.640Z,96199.77
2019-06-20T02:44:51.777Z,96209.30
2019-06-20T02:47:23.562Z,96199.10
2019-06-20T02:49:55.334Z,96201.04
2019-06-20T02:52:27.276Z,96203.82
2019-06-20T02:54:59.048Z,96200.64
2019-06-20T02:57:30.838Z,96198.23
2019-06-20T03:00:02.665Z,96207.39
2019-06-20T03:02:34.712Z,96217.02
2019-06-20T03:05:08.704Z,96222.61
2019-06-20T03:07:40.457Z,96226.84
2019-06-20T03:10:13.651Z,96235.60
2019-06-20T03:12:45.432Z,96243.27
2019-06-20T03:15:17.346Z,96263.72
2019-06-20T03:17:49.126Z,96268.77
2019-06-20T03:20:21.937Z,96268.73
2019-06-20T03:22:53.721Z,96268.87
2019-06-20T03:25:25.495Z,96265.52
2019-06-20T03:27:57.573Z,96271.20
2019-06-20T03:30:29.416Z,96276.69
2019-06-20T03:33:01.209Z,96271.23
2019-06-20T03:35:32.950Z,96277.17
2019-06-20T03:38:04.793Z,96273.84
2019-06-20T03:40:36.559Z,96278.96
2019-06-20T03:43:08.353Z,96271.70
2019-06-20T03:45:40.135Z,96269.20
2019-06-20T03:48:11.936Z,96271.23
2019-06-20T03:50:43.682Z,96265.77
2019-06-20T03:53:15.771Z,96270.57
2019-06-20T03:55:48.602Z,96265.77
2019-06-20T03:58:20.710Z,96259.55
2019-06-20T04:00:52.504Z,96254.84
2019-06-20T04:03:24.282Z,96254.53
2019-06-20T04:05:56.058Z,96258.43
2019-06-20T04:08:27.838Z,96246.34
2019-06-20T04:10:59.605Z,96242.34
2019-06-20T04:13:31.387Z,96248.51
2019-06-20T04:16:03.490Z,96250.89
2019-06-20T04:18:35.302Z,96251.62
2019-06-20T04:21:07.161Z,96245.22
2019-06-20T04:23:38.949Z,96235.77
2019-06-20T04:26:11.180Z,96247.73
2019-06-20T04:28:42.977Z,96244.77
2019-06-20T04:31:14.798Z,96249.52
2019-06-20T04:33:46.545Z,96257.56
2019-06-20T04:36:18.361Z,96260.20
2019-06-20T04:38:50.145Z,96257.76
2019-06-20T04:41:21.913Z,96262.12
2019-06-20T04:43:53.706Z,96264.57
2019-06-20T04:46:27.121Z,96270.72
2019-06-20T04:48:58.900Z,96273.72
2019-06-20T04:51:30.680Z,96276.45
2019-06-20T04:54:02.723Z,96276.86
2019-06-20T04:56:34.498Z,96284.70
2019-06-20T04:59:06.285Z,96292.83
2019-06-20T05:01:38.052Z,96297.06
2019-06-20T05:04:11.068Z,96306.07
2019-06-20T05:06:45.651Z,96308.16
2019-06-20T05:09:17.421Z,96309.25
2019-06-20T05:11:49.193Z,96309.56
2019-06-20T05:14:20.982Z,96316.69
2019-06-20T05:16:52.751Z,96326.82
2019-06-20T05:19:24.576Z,96331.62
2019-06-20T05:21:56.380Z,96348.78
2019-06-20T05:24:28.237Z,96364.24
2019-06-20T05:27:00.040Z,96376.25
2019-06-20T05:29:31.794Z,96367.45
2019-06-20T05:32:03.711Z,96363.28
2019-06-20T05:34:35.572Z,96339.13
2019-06-20T05:37:07.342Z,96328.19
2019-06-20T05:39:39.199Z,96329.83
2019-06-20T05:42:11.726Z,96319.55
2019-06-20T05:44:43.556Z,96317.58
2019-06-20T05:47:15.352Z,96308.88
2019-06-20T05:49:47.157Z,96311.13
2019-06-20T05:52:18.986Z,96301.48
2019-06-20T05:54:50.836Z,96297.11
2019-06-20T05:57:22.673Z,96296.50
2019-06-20T05:59:54.532Z,96291.99
2019-06-20T06:02:26.467Z,96291.99
2019-06-20T06:04:58.491Z,96302.23
2019-06-20T06:07:30.403Z,96308.27
2019-06-20T06:10:04.015Z,96277.67
2019-06-20T06:12:36.559Z,96265.64
2019-06-20T06:15:09.670Z,96243.55
2019-06-20T06:17:42.125Z,96199.04
2019-06-20T06:20:15.940Z,96188.52
2019-06-20T06:22:47.778Z,96176.98
2019-06-20T06:25:19.681Z,96170.75
2019-06-20T06:27:51.408Z,96186.23
2019-06-20T06:30:23.263Z,96277.34
2019-06-20T06:32:55.027Z,96302.52
2019-06-20T06:35:26.884Z,96304.14
2019-06-20T06:37:58.654Z,96299.63
2019-06-20T06:40:30.562Z,96313.33
2019-06-20T06:43:02.332Z,96300.98
2019-06-20T06:45:34.196Z,96300.16
2019-06-20T06:48:05.994Z,96293.41
2019-06-20T06:50:38.082Z,96299.03
2019-06-20T06:53:11.054Z,96291.66
2019-06-20T06:55:42.853Z,96284.44
2019-06-20T06:58:14.630Z,96279.39
2019-06-20T07:00:46.406Z,96268.00
2019-06-20T07:03:18.177Z,96274.80
2019-06-20T07:05:49.989Z,96273.96
2019-06-20T07:08:21.769Z,96278.59
2019-06-20T07:10:53.544Z,96274.42
2019-06-20T07:13:25.314Z,96266.78
2019-06-20T07:15:58.066Z,96261.71
2019-06-20T07:18:29.834Z,96266.08
2019-06-20T07:21:01.833Z,96272.31
2019-06-20T07:23:33.565Z,96273.67
2019-06-20T07:26:05.409Z,96277.02
2019-06-20T07:28:37.171Z,96276.69
2019-06-20T07:31:10.540Z,96269.17
2019-06-20T07:33:42.301Z,96266.73
2019-06-20T07:36:14.084Z,96268.73
2019-06-20T07:38:45.858Z,96267.59
2019-06-20T07:41:17.638Z,96262.09
2019-06-20T07:43:50.440Z,96268.94
2019-06-20T07:46:22.250Z,96269.92
2019-06-20T07:48:54.033Z,96269.86
2019-06-20T07:51:25.817Z,96271.65
2019-06-20T07:53:57.595Z,96279.06
2019-06-20T07:56:29.482Z,96272.46
2019-06-20T07:59:01.283Z,96278.91
2019-06-20T08:01:33.064Z,96288.53
2019-06-20T08:04:05.122Z,96285.70
2019-06-20T08:06:36.908Z,96291.33
2019-06-20T08:09:09.561Z,96298.22
2019-06-20T08:11:41.356Z,96293.61
2019-06-20T08:14:13.110Z,96294.38
2019-06-20T08:16:44.901Z,96289.65
2019-06-20T08:19:16.692Z,96287.31
2019-06-20T08:21:48.457Z,96290.91
2019-06-20T08:24:20.221Z,96297.59
2019-06-20T08:26:52.016Z,96293.67
2019-06-20T08:29:23.764Z,96297.77
2019-06-20T08:31:56.162Z,96298.30
2019-06-20T08:34:29.023Z,96293.02
2019-06-20T08:37:02.381Z,96302.59
2019-06-20T08:39:34.592Z,96305.16
2019-06-20T08:42:06.615Z,96308.25
2019-06-20T08:44:38.953Z,96311.44
2019-06-20T08:47:11.110Z,96313.99
2019-06-20T08:49:43.577Z,96313.66
2019-06-20T08:52:15.353Z,96317.20
2019-06-20T08:54:47.138Z,96316.01
2019-06-20T08:57:18.914Z,96323.54
2019-06-20T08:59:50.678Z,96316.72
2019-06-20T09:02:22.463Z,96321.31
2019-06-20T09:04:55.192Z,96318.30
2019-06-20T09:07:27.808Z,96318.72
2019-06-20T09:09:59.813Z,96319.75
2019-06-20T09:12:31.706Z,96320.27
2019-06-20T09:15:04.845Z,96324.64
2019-06-20T09:17:36.628Z,96323.88
2019-06-20T09:20:12.266Z,96319.32
2019-06-20T09:22:44.115Z,96319.58
2019-06-20T09:25:16.224Z,96328.23
2019-06-20T09:27:48.004Z,96326.41
2019-06-20T09:30:21.389Z,96329.42
2019-06-20T09:32:53.855Z,96327.76
2019-06-20T09:35:27.016Z,96331.92
2019-06-20T09:37:59.287Z,96326.52
2019-06-20T09:40:31.221Z,96334.03
2019-06-20T09:43:03.129Z,96336.95
2019-06-20T09:45:35.032Z,96345.43
2019-06-20T09:48:06.972Z,96337.41
2019-06-20T09:50:38.805Z,96340.19
2019-06-20T09:53:11.393Z,96339.16
2019-06-20T09:55:43.159Z,96344.63
2019-06-20T09:58:14.920Z,96348.28
2019-06-20T10:00:48.163Z,96341.17
2019-06-20T10:03:20.744Z,96347.94
2019-06-20T10:05:52.575Z,96342.77
2019-06-20T10:08:24.443Z,96347.04
2019-06-20T10:10:56.374Z,96353.11
2019-06-20T10:13:28.094Z,96353.86
2019-06-20T10:15:59.893Z,96349.33
2019-06-20T10:18:31.644Z,96339.95
2019-06-20T10:21:03.498Z,96339.97
2019-06-20T10:23:35.269Z,96342.91
2019-06-20T10:26:07.099Z,96357.11
2019-06-20T10:28:39.113Z,96346.18
2019-06-20T10:31:11.197Z,96344.84
2019-06-20T10:33:45.185Z,96338.60
2019-06-20T10:36:16.443Z,96332.58
2019-06-20T10:38:48.213Z,96333.94
2019-06-20T10:41:19.979Z,96325.86
2019-06-20T10:43:51.834Z,96326.08
2019-06-20T10:46:23.592Z,96322.78
2019-06-20T10:48:56.439Z,96317.25
2019-06-20T10:51:33.063Z,96313.80
2019-06-20T10:54:05.089Z,96314.92
2019-06-20T10:56:36.848Z,96321.25
2019-06-20T10:59:08.626Z,96327.27
2019-06-20T11:01:41.492Z,96312.48
2019-06-20T11:04:13.963Z,96322.80
2019-06-20T11:06:45.768Z,96316.20
2019-06-20T11:09:17.860Z,96311.81
2019-06-20T11:11:49.615Z,96314.86
2019-06-20T11:14:21.460Z,96318.56
2019-06-20T11:16:53.227Z,96317.13
2019-06-20T11:19:24.993Z,96314.08
2019-06-20T11:21:56.761Z,96320.70
2019-06-20T11:24:28.539Z,96314.23
2019-06-20T11:27:00.305Z,96304.98
2019-06-20T11:29:32.339Z,96308.28
2019-06-20T11:32:04.093Z,96302.98
2019-06-20T11:34:37.655Z,96299.48
2019-06-20T11:37:11.277Z,96302.61
2019-06-20T11:39:43.268Z,96307.36
2019-06-20T11:42:15.004Z,96307.68
2019-06-20T11:44:47.495Z,96302.43
2019-06-20T11:47:20.625Z,96294.73
2019-06-20T11:49:52.413Z,96290.55
2019-06-20T11:52:24.169Z,96289.41
2019-06-20T11:54:55.947Z,96292.38
2019-06-20T11:57:27.701Z,96290.78
2019-06-20T11:59:59.468Z,96304.67
2019-06-20T12:02:31.229Z,96300.94
2019-06-20T12:05:03.197Z,96298.64
2019-06-20T12:07:34.966Z,96291.00
2019-06-20T12:10:07.894Z,96286.74
2019-06-20T12:12:40.909Z,96300.27
2019-06-20T12:15:13.847Z,96303.19
2019-06-20T12:17:47.043Z,96295.79
2019-06-20T12:20:21.113Z,96290.09
2019-06-20T12:22:53.655Z,96283.91
2019-06-20T12:25:25.958Z,96285.78
2019-06-20T12:27:57.722Z,96283.55
2019-06-20T12:30:30.339Z,96288.81
2019-06-20T12:33:02.176Z,96288.16
2019-06-20T12:35:34.924Z,96278.05
2019-06-20T12:38:06.685Z,96279.08
2019-06-20T12:40:39.666Z,96294.90
2019-06-20T12:43:11.941Z,96308.48
2019-06-20T12:45:43.760Z,96301.11
2019-06-20T12:48:15.592Z,96299.01
2019-06-20T12:50:47.622Z,96306.08
2019-06-20T12:53:19.454Z,96304.86
2019-06-20T12:55:51.214Z,96297.82
2019-06-20T12:58:23.055Z,96300.55
2019-06-20T13:00:54.826Z,96303.92
2019-06-20T13:03:26.599Z,96310.34
2019-06-20T13:05:58.448Z,96304.25
2019-06-20T13:08:30.221Z,96302.63
2019-06-20T13:11:02.041Z,96297.47
2019-06-20T13:13:33.811Z,96278.14
2019-06-20T13:16:05.585Z,96288.72
2019-06-20T13:18:37.362Z,96292.99
2019-06-20T13:21:09.861Z,96275.85
2019-06-20T13:23:43.145Z,96271.44
2019-06-20T13:26:15.272Z,96273.59
2019-06-20T13:29:02.871Z,96278.98
2019-06-20T13:31:20.715Z,96284.10
2019-06-20T13:33:52.741Z,96281.06
2019-06-20T13:36:24.523Z,96281.33
2019-06-20T13:38:56.306Z,96292.16
2019-06-20T13:41:28.439Z,96288.81
2019-06-20T13:44:00.220Z,96288.23
2019-06-20T13:46:31.995Z,96290.60
2019-06-20T13:49:04.037Z,96276.09
2019-06-20T13:51:35.835Z,96281.50
2019-06-20T13:54:08.093Z,96281.16
2019-06-20T13:56:39.858Z,96282.20
2019-06-20T13:59:11.632Z,96290.38
2019-06-20T14:01:45.469Z,96304.93
2019-06-20T14:04:16.892Z,96309.58
2019-06-20T14:06:49.733Z,96312.08
2019-06-20T14:09:21.522Z,96311.52
2019-06-20T14:11:54.210Z,96309.70
2019-06-20T14:14:26.022Z,96310.58
2019-06-20T14:16:58.281Z,96304.10
2019-06-20T14:19:30.040Z,96302.92
2019-06-20T14:22:02.561Z,96300.62
2019-06-20T14:24:34.314Z,96313.06
2019-06-20T14:27:06.094Z,96314.80
2019-06-20T14:29:56.750Z,96308.06
2019-06-20T14:32:29.311Z,96309.97
2019-06-20T14:35:01.079Z,96313.10
2019-06-20T14:37:32.871Z,96313.22
2019-06-20T14:40:08.911Z,96311.29
2019-06-20T14:42:40.699Z,96310.63
2019-06-20T14:45:12.696Z,96325.25
2019-06-20T14:47:44.668Z,96330.16
2019-06-20T14:50:19.269Z,96327.37
2019-06-20T14:52:52.235Z,96327.41
2019-06-20T14:55:24.798Z,96331.56
2019-06-20T14:57:56.047Z,96333.34
2019-06-20T15:00:30.066Z,96328.75
2019-06-20T15:03:01.842Z,96329.34
2019-06-20T15:05:34.875Z,96330.90
2019-06-20T15:08:06.760Z,96329.78
2019-06-20T15:10:38.525Z,96332.12
2019-06-20T15:13:11.385Z,96332.00
2019-06-20T15:15:43.159Z,96337.61
2019-06-20T15:18:14.934Z,96343.25
2019-06-20T15:20:49.762Z,96341.11
2019-06-20T15:23:20.472Z,96339.95
2019-06-20T15:25:52.275Z,96334.70
2019-06-20T15:28:24.012Z,96324.61
2019-06-20T15:30:57.319Z,96321.72
2019-06-20T15:33:29.261Z,96314.45
2019-06-20T15:36:01.036Z,96306.91
2019-06-20T15:38:32.828Z,96301.08
2019-06-20T15:41:04.766Z,96300.39
2019-06-20T15:43:37.090Z,96302.13
2019-06-20T15:46:08.864Z,96290.42
2019-06-20T15:48:40.665Z,96289.52
2019-06-20T15:51:12.438Z,96291.11
2019-06-20T15:53:44.217Z,96290.19
2019-06-20T15:56:15.997Z,96281.20
2019-06-20T15:58:47.771Z,96282.20
2019-06-20T16:01:19.549Z,96279.52
2019-06-20T16:03:52.614Z,96281.91
2019-06-20T16:06:24.543Z,96285.52
2019-06-20T16:08:56.445Z,96293.42
2019-06-20T16:11:28.175Z,96298.51
2019-06-20T16:13:59.982Z,96308.48
2019-06-20T16:16:31.717Z,96302.54
2019-06-20T16:19:03.592Z,96300.37
2019-06-20T16:21:35.520Z,96305.09
2019-06-20T16:24:07.461Z,96307.89
2019-06-20T16:26:39.212Z,96314.59
2019-06-20T16:29:11.647Z,96307.42
2019-06-20T16:31:43.487Z,96311.83
2019-06-20T16:34:15.443Z,96320.09
2019-06-20T16:36:47.198Z,96323.45
2019-06-20T16:39:18.981Z,96322.77
2019-06-20T16:41:50.732Z,96320.39
2019-06-20T16:44:22.528Z,96323.92
2019-06-20T16:46:54.288Z,96327.94
2019-06-20T16:49:26.069Z,96327.34
2019-06-20T16:51:57.845Z,96331.95
2019-06-20T16:54:29.625Z,96330.34
2019-06-20T16:57:01.431Z,96328.41
2019-06-20T16:59:33.182Z,96328.38
2019-06-20T17:02:05.260Z,96326.00
2019-06-20T17:04:37.026Z,96321.08
2019-06-20T17:07:09.865Z,96324.05
2019-06-20T17:09:42.136Z,96327.54
2019-06-20T17:12:14.865Z,96327.83
2019-06-20T17:14:46.639Z,96335.34
2019-06-20T17:17:19.470Z,96333.08
2019-06-20T17:19:51.371Z,96338.64
2019-06-20T17:22:23.135Z,96336.31
2019-06-20T17:24:54.914Z,96335.55
2019-06-20T17:27:26.675Z,96340.33
2019-06-20T17:29:58.447Z,96344.88
2019-06-20T17:32:30.200Z,96347.06
2019-06-20T17:35:02.548Z,96355.36
2019-06-20T17:37:34.301Z,96353.27
2019-06-20T17:40:07.994Z,96358.61
2019-06-20T17:42:39.741Z,96353.73
2019-06-20T17:45:13.197Z,96351.88
2019-06-20T17:47:44.971Z,96352.05
2019-06-20T17:50:17.161Z,96359.78
2019-06-20T17:52:48.920Z,96358.70
2019-06-20T17:55:20.827Z,96365.22
2019-06-20T17:57:52.692Z,96364.33
2019-06-20T18:00:25.571Z,96370.91
2019-06-20T18:02:57.334Z,96373.47
2019-06-20T18:05:30.313Z,96376.42
2019-06-20T18:08:14.780Z,96375.86
2019-06-20T18:10:35.551Z,96370.14
2019-06-20T18:13:07.321Z,96371.15
2019-06-20T18:15:39.276Z,96369.04
2019-06-20T18:18:11.039Z,96367.70
2019-06-20T18:20:42.879Z,96364.91
2019-06-20T18:23:14.726Z,96365.69
2019-06-20T18:25:46.615Z,96369.50
2019-06-20T18:28:18.372Z,96358.27
2019-06-20T18:30:50.362Z,96363.22
2019-06-20T18:33:22.122Z,96362.81
2019-06-20T18:35:55.097Z,96359.70
2019-06-20T18:38:26.857Z,96361.97
2019-06-20T18:40:58.693Z,96359.34
2019-06-20T18:43:30.462Z,96367.31
2019-06-20T18:46:02.394Z,96376.16
2019-06-20T18:48:34.169Z,96378.98
2019-06-20T18:51:06.692Z,96388.02
2019-06-20T18:53:38.449Z,96384.82
2019-06-20T18:56:11.045Z,96395.56
2019-06-20T18:58:42.885Z,96399.23
2019-06-20T19:01:14.659Z,96400.16
2019-06-20T19:03:46.724Z,96396.37
2019-06-20T19:06:18.595Z,96398.34
2019-06-20T19:08:50.613Z,96396.51
2019-06-20T19:11:22.472Z,96403.99
2019-06-20T19:13:54.228Z,96398.45
2019-06-20T19:16:26.006Z,96399.06
2019-06-20T19:18:57.784Z,96388.69
2019-06-20T19:21:29.572Z,96391.38
2019-06-20T19:24:01.324Z,96388.80
2019-06-20T19:26:33.482Z,96392.51
2019-06-20T19:29:05.282Z,96394.58
2019-06-20T19:31:37.311Z,96398.54
2019-06-20T19:34:09.283Z,96408.20
2019-06-20T19:36:41.060Z,96418.17
2019-06-20T19:39:12.897Z,96420.33
2019-06-20T19:41:44.667Z,96426.86
2019-06-20T19:44:16.544Z,96428.02
2019-06-20T19:46:48.328Z,96429.22
2019-06-20T19:49:20.091Z,96431.30
2019-06-20T19:51:52.084Z,96440.59
2019-06-20T19:54:23.847Z,96443.98
2019-06-20T19:56:55.702Z,96441.02
2019-06-20T19:59:27.466Z,96442.48
2019-06-20T20:01:59.324Z,96447.75
2019-06-20T20:04:31.156Z,96451.81
2019-06-20T20:07:02.939Z,96449.50
2019-06-20T20:09:35.907Z,96450.28
2019-06-20T20:12:07.737Z,96451.88
2019-06-20T20:14:39.519Z,96464.33
2019-06-20T20:17:11.305Z,96459.31
2019-06-20T20:19:43.070Z,96462.33
2019-06-20T20:22:14.871Z,96462.33
2019-06-20T20:24:46.642Z,96457.14
2019-06-20T20:27:18.434Z,96458.89
2019-06-20T20:29:50.261Z,96465.09
2019-06-20T20:32:22.049Z,96468.55
2019-06-20T20:34:53.824Z,96471.15
2019-06-20T20:37:25.617Z,96471.42
2019-06-20T20:39:57.412Z,96474.39
2019-06-20T20:42:29.261Z,96485.08
2019-06-20T20:45:01.031Z,96484.70
2019-06-20T20:47:32.840Z,96485.45
2019-06-20T20:50:10.261Z,96486.61
2019-06-20T20:52:42.980Z,96478.27
2019-06-20T20:55:16.290Z,96483.31
2019-06-20T20:57:48.026Z,96481.80
2019-06-20T21:00:45.228Z,96493.09
2019-06-20T21:03:17.082Z,96494.20
2019-06-20T21:05:51.703Z,96498.96
2019-06-20T21:08:22.390Z,96499.80
2019-06-20T21:10:54.164Z,96504.29
2019-06-20T21:13:26.018Z,96509.83
2019-06-20T21:15:58.113Z,96513.93
2019-06-20T21:18:29.893Z,96519.65
2019-06-20T21:21:02.648Z,96520.14
2019-06-20T21:23:34.418Z,96524.25
2019-06-20T21:26:06.256Z,96523.73
2019-06-20T21:28:38.024Z,96524.14
2019-06-20T21:31:11.049Z,96528.13
2019-06-20T21:33:42.811Z,96531.53
2019-06-20T21:36:14.589Z,96532.23
2019-06-20T21:38:47.479Z,96532.23
2019-06-20T21:41:19.214Z,96538.88
2019-06-20T21:43:51.002Z,96545.73
2019-06-20T21:46:22.774Z,96541.86
2019-06-20T21:48:54.566Z,96547.37
2019-06-20T21:51:26.326Z,96545.02
2019-06-20T21:53:58.108Z,96551.47
2019-06-20T21:56:29.873Z,96546.03
2019-06-20T21:59:01.926Z,96545.02
2019-06-20T22:01:33.966Z,96542.67
2019-06-20T22:04:05.893Z,96547.77
2019-06-20T22:06:37.650Z,96544.81
2019-06-20T22:09:09.673Z,96549.01
2019-06-20T22:11:43.046Z,96546.55
2019-06-20T22:14:14.827Z,96544.00
2019-06-20T22:16:46.593Z,96548.70
2019-06-20T22:19:18.369Z,96553.63
2019-06-20T22:21:50.142Z,96555.66
2019-06-20T22:24:21.918Z,96556.87
2019-06-20T22:26:53.687Z,96557.06
2019-06-20T22:29:25.496Z,96553.08
2019-06-20T22:31:57.243Z,96555.85
2019-06-20T22:34:29.050Z,96552.49
2019-06-20T22:37:00.816Z,96558.52
2019-06-20T22:39:32.658Z,96553.63
2019-06-20T22:42:04.499Z,96550.23
2019-06-20T22:44:36.281Z,96556.05
2019-06-20T22:47:08.052Z,96548.27
2019-06-20T22:49:39.818Z,96560.47
2019-06-20T22:52:11.611Z,96559.64
2019-06-20T22:54:43.375Z,96566.69
2019-06-20T22:57:15.144Z,96560.66
2019-06-20T22:59:46.922Z,96556.67
2019-06-20T23:02:18.690Z,96557.80
2019-06-20T23:04:50.473Z,96563.50
2019-06-20T23:07:22.252Z,96560.84
2019-06-20T23:10:09.338Z,96565.77
2019-06-20T23:12:27.658Z,96561.47
2019-06-20T23:14:59.444Z,96554.51
2019-06-20T23:17:31.210Z,96555.33
2019-06-20T23:20:07.256Z,96560.83
2019-06-20T23:22:40.765Z,96559.81
2019-06-20T23:25:14.497Z,96557.05
2019-06-20T23:27:46.291Z,96561.34
2019-06-20T23:30:18.761Z,96567.27
2019-06-20T23:32:50.530Z,96564.11
2019-06-20T23:35:22.309Z,96563.41
2019-06-20T23:37:54.074Z,96560.83
2019-06-20T23:40:25.854Z,96564.72
2019-06-20T23:42:57.619Z,96570.03
2019-06-20T23:45:29.415Z,96576.43
2019-06-20T23:48:01.194Z,96579.07
2019-06-20T23:50:34.243Z,96577.97
2019-06-20T23:53:11.728Z,96573.49
2019-06-20T23:55:43.502Z,96569.58
2019-06-20T23:58:15.336Z,96568.46
